Time;durP1;ratioP1;P1;durP2;ratioP2;P2;SDS_P1;SDS_P2;PMS_P1;PMS_P2;Temp;Humidity;BMP_temperature;BMP_pressure;BME280_temperature;BME280_humidity;BME280_pressure;Samples;Min_cycle;Max_cycle;Signal;HPM_P1;HPM_P2
2023/05/17 00:01:08;;;;;;;1.50;1.40;;;18.10;52.50;;;;;;4997276;28;20638;-80
2023/05/17 00:03:36;;;;;;;3.55;1.42;;;18.00;52.20;;;;;;4997621;28;20247;-80
2023/05/17 00:06:03;;;;;;;2.35;1.60;;;18.00;52.30;;;;;;4981124;28;20291;-80
2023/05/17 00:08:31;;;;;;;1.80;1.50;;;17.90;52.30;;;;;;4997116;28;20239;-80
2023/05/17 00:10:58;;;;;;;1.65;1.35;;;18.00;52.30;;;;;;4997240;28;20232;-79
2023/05/17 00:13:25;;;;;;;2.20;1.58;;;18.00;52.50;;;;;;5014894;28;20204;-79
2023/05/17 00:15:51;;;;;;;2.17;1.50;;;18.00;52.40;;;;;;4998299;28;20251;-79
2023/05/17 00:18:18;;;;;;;2.92;1.30;;;18.00;52.50;;;;;;4997684;28;20205;-79
2023/05/17 00:20:47;;;;;;;1.40;1.30;;;18.00;52.40;;;;;;4997750;28;20196;-79
2023/05/17 00:23:14;;;;;;;1.80;1.38;;;18.00;52.50;;;;;;4997393;28;20204;-79
2023/05/17 00:25:41;;;;;;;1.40;1.30;;;17.90;52.50;;;;;;4997436;28;20200;-79
2023/05/17 00:28:08;;;;;;;3.08;1.40;;;17.90;52.40;;;;;;4997740;28;20717;-79
2023/05/17 00:30:35;;;;;;;2.33;1.40;;;17.90;52.50;;;;;;4965945;28;20645;-78
2023/05/17 00:33:04;;;;;;;1.80;1.40;;;17.90;52.50;;;;;;4997654;28;20216;-78
2023/05/17 00:35:31;;;;;;;1.88;1.50;;;17.90;52.60;;;;;;4997597;28;20702;-78
2023/05/17 00:37:59;;;;;;;2.55;1.40;;;17.80;52.30;;;;;;4997760;28;20189;-78
2023/05/17 00:40:26;;;;;;;2.15;1.40;;;17.80;52.50;;;;;;4981464;28;20291;-78
2023/05/17 00:42:53;;;;;;;2.03;1.30;;;17.80;52.40;;;;;;4997505;28;20220;-78
2023/05/17 00:45:22;;;;;;;1.70;1.30;;;17.80;52.50;;;;;;4998623;28;20193;-78
2023/05/17 00:47:49;;;;;;;2.75;1.30;;;17.80;52.50;;;;;;4981188;28;20317;-78
2023/05/17 00:50:17;;;;;;;2.13;1.30;;;17.80;53.20;;;;;;4981742;28;20228;-78
2023/05/17 00:52:44;;;;;;;1.48;1.20;;;17.80;53.30;;;;;;4997851;28;20239;-78
2023/05/17 00:55:13;;;;;;;1.40;1.30;;;17.80;52.50;;;;;;5001357;28;20213;-78
2023/05/17 00:57:40;;;;;;;1.33;1.23;;;17.70;52.50;;;;;;5001261;28;20197;-78
2023/05/17 01:00:09;;;;;;;1.40;1.30;;;17.70;52.70;;;;;;5001063;28;20197;-78
2023/05/17 01:02:36;;;;;;;1.73;1.40;;;17.70;52.60;;;;;;4969041;28;20216;-78
2023/05/17 01:05:04;;;;;;;1.80;1.48;;;17.70;52.30;;;;;;5001024;28;20266;-78
2023/05/17 01:07:31;;;;;;;1.73;1.15;;;17.70;52.70;;;;;;4984862;28;20204;-78
2023/05/17 01:09:58;;;;;;;2.17;1.40;;;17.70;52.60;;;;;;5000985;28;20260;-78
2023/05/17 01:12:32;;;;;;;1.58;1.25;;;17.70;52.70;;;;;;5000643;28;20263;-78
2023/05/17 01:15:07;;;;;;;1.85;1.30;;;17.70;52.60;;;;;;5001617;28;20231;-78
2023/05/17 01:17:36;;;;;;;1.30;1.20;;;17.70;52.50;;;;;;5001454;28;20613;-78
2023/05/17 01:20:07;;;;;;;2.03;1.40;;;17.70;52.50;;;;;;5000417;28;20205;-78
2023/05/17 01:22:40;;;;;;;1.80;1.40;;;17.70;52.80;;;;;;5000385;28;20703;-78
2023/05/17 01:25:12;;;;;;;2.10;1.33;;;17.70;52.70;;;;;;5018275;28;20627;-78
2023/05/17 01:27:42;;;;;;;1.23;1.13;;;17.70;52.70;;;;;;5000447;28;20201;-78
2023/05/17 01:30:11;;;;;;;1.52;1.30;;;17.70;52.70;;;;;;5000260;28;20200;-78
2023/05/17 01:32:39;;;;;;;2.30;1.30;;;17.60;52.60;;;;;;5000191;28;20589;-78
2023/05/17 01:35:09;;;;;;;2.42;1.27;;;17.60;52.60;;;;;;5000221;28;20267;-78
2023/05/17 01:37:36;;;;;;;1.52;1.40;;;17.60;52.70;;;;;;4984126;28;20646;-78
2023/05/17 01:40:04;;;;;;;1.38;1.27;;;17.60;52.60;;;;;;4999759;28;20224;-78
2023/05/17 01:42:32;;;;;;;1.95;1.30;;;17.60;52.90;;;;;;4999742;28;20213;-78
2023/05/17 01:45:04;;;;;;;2.17;1.40;;;17.60;52.60;;;;;;5000320;28;20192;-78
2023/05/17 01:47:40;;;;;;;2.17;1.35;;;17.60;52.60;;;;;;4999657;28;20200;-78
2023/05/17 01:50:07;;;;;;;2.33;1.45;;;17.60;52.60;;;;;;4999283;28;20205;-78
2023/05/17 01:52:38;;;;;;;1.58;1.23;;;17.60;52.70;;;;;;4999846;28;20224;-78
2023/05/17 01:55:09;;;;;;;2.75;1.38;;;17.60;52.60;;;;;;4999318;28;20209;-78
2023/05/17 01:57:36;;;;;;;1.80;1.40;;;17.60;52.90;;;;;;4999180;28;20219;-79
2023/05/17 02:00:08;;;;;;;2.38;1.52;;;17.50;52.60;;;;;;4999381;28;20255;-79
2023/05/17 02:02:41;;;;;;;1.25;1.10;;;17.50;52.90;;;;;;5016598;28;20217;-79
2023/05/17 02:05:08;;;;;;;1.38;1.20;;;17.50;52.70;;;;;;5000204;28;20688;-80
2023/05/17 02:07:35;;;;;;;1.55;1.30;;;17.50;52.80;;;;;;5000608;28;20193;-79
2023/05/17 02:10:02;;;;;;;1.42;1.33;;;17.50;52.60;;;;;;4998959;28;20218;-79
2023/05/17 02:12:29;;;;;;;1.45;1.20;;;17.50;52.60;;;;;;4967653;28;20255;-79
2023/05/17 02:14:56;;;;;;;3.17;1.30;;;17.50;52.80;;;;;;4983000;28;20217;-79
2023/05/17 02:17:25;;;;;;;2.10;1.30;;;17.40;52.50;;;;;;4998852;28;20197;-79
2023/05/17 02:19:52;;;;;;;1.48;1.20;;;17.50;52.60;;;;;;4999001;28;20231;-79
2023/05/17 02:22:19;;;;;;;2.25;1.33;;;17.50;52.60;;;;;;4998739;28;20225;-79
2023/05/17 02:24:47;;;;;;;2.35;1.45;;;17.40;52.50;;;;;;4998581;28;20247;-79
2023/05/17 02:27:14;;;;;;;1.20;1.10;;;17.50;52.60;;;;;;4998673;28;20227;-79
2023/05/17 02:29:41;;;;;;;2.13;1.30;;;17.40;52.70;;;;;;4998619;28;20203;-79
2023/05/17 02:32:08;;;;;;;1.92;1.33;;;17.40;52.50;;;;;;4982387;28;20221;-79
2023/05/17 02:34:37;;;;;;;2.97;1.40;;;17.40;52.80;;;;;;4982372;28;20217;-79
2023/05/17 02:37:04;;;;;;;1.70;1.30;;;17.40;52.70;;;;;;4998881;28;20201;-79
2023/05/17 02:39:32;;;;;;;1.42;1.30;;;17.30;52.80;;;;;;4999450;28;20296;-79
2023/05/17 02:41:59;;;;;;;2.40;1.10;;;17.40;52.70;;;;;;4998939;28;20766;-79
2023/05/17 02:44:27;;;;;;;1.83;1.20;;;17.30;52.50;;;;;;5000729;28;20655;-79
2023/05/17 02:46:54;;;;;;;2.45;1.30;;;17.40;52.80;;;;;;4998556;28;20200;-79
2023/05/17 02:49:21;;;;;;;1.30;1.20;;;17.40;52.50;;;;;;4998798;28;20197;-79
2023/05/17 02:51:49;;;;;;;1.02;0.95;;;17.40;52.60;;;;;;4998620;28;20687;-79
2023/05/17 02:54:17;;;;;;;1.50;1.27;;;17.30;52.60;;;;;;4998622;28;20213;-79
2023/05/17 02:56:44;;;;;;;2.95;1.40;;;17.30;52.50;;;;;;4982508;28;20224;-79
2023/05/17 02:59:11;;;;;;;1.90;1.55;;;17.30;52.80;;;;;;4998840;28;20235;-79
2023/05/17 03:01:41;;;;;;;1.40;1.23;;;17.30;52.50;;;;;;4998613;28;20220;-79
2023/05/17 03:04:09;;;;;;;1.27;1.10;;;17.30;52.40;;;;;;4998832;28;20572;-79
2023/05/17 03:06:37;;;;;;;1.67;1.30;;;17.30;52.40;;;;;;4982303;28;20203;-79
2023/05/17 03:09:06;;;;;;;2.08;1.20;;;17.30;52.40;;;;;;4998225;28;20207;-79
2023/05/17 03:11:34;;;;;;;1.55;1.45;;;17.30;52.40;;;;;;4998717;28;20221;-79
2023/05/17 03:14:03;;;;;;;1.20;1.10;;;17.20;52.40;;;;;;4997828;28;20205;-79
2023/05/17 03:16:31;;;;;;;3.25;1.13;;;17.20;52.70;;;;;;4997813;28;20197;-79
2023/05/17 03:18:59;;;;;;;1.63;1.30;;;17.20;52.60;;;;;;4997973;28;20197;-79
2023/05/17 03:21:26;;;;;;;2.17;1.20;;;17.20;52.30;;;;;;4982527;28;20225;-79
2023/05/17 03:23:53;;;;;;;1.48;1.20;;;17.30;52.40;;;;;;4997953;28;20189;-79
2023/05/17 03:26:22;;;;;;;2.15;1.30;;;17.30;52.40;;;;;;4997919;28;20243;-80
2023/05/17 03:28:52;;;;;;;1.85;1.33;;;17.30;52.50;;;;;;4998314;28;20271;-80
2023/05/17 03:31:19;;;;;;;1.95;1.33;;;17.30;52.50;;;;;;4997609;28;20217;-80
2023/05/17 03:33:47;;;;;;;2.72;1.27;;;17.30;52.60;;;;;;4997684;28;20189;-80
2023/05/17 03:36:14;;;;;;;1.20;1.10;;;17.30;52.40;;;;;;4997270;28;20219;-80
2023/05/17 03:38:41;;;;;;;1.30;1.20;;;17.40;52.50;;;;;;4981094;28;20701;-80
2023/05/17 03:41:09;;;;;;;1.25;1.15;;;17.40;52.20;;;;;;4997753;28;20220;-80
2023/05/17 03:43:37;;;;;;;1.50;1.25;;;17.50;51.90;;;;;;5014827;28;20239;-79
2023/05/17 03:46:05;;;;;;;1.65;1.10;;;17.50;51.80;;;;;;4997568;28;20726;-79
2023/05/17 03:48:32;;;;;;;1.48;1.17;;;17.50;51.90;;;;;;4997326;28;20705;-79
2023/05/17 03:50:59;;;;;;;1.35;1.05;;;17.50;52.00;;;;;;4997404;28;20204;-79
2023/05/17 03:53:27;;;;;;;0.98;0.93;;;17.40;51.60;;;;;;4997333;28;20227;-79
2023/05/17 03:55:54;;;;;;;1.50;1.00;;;17.40;51.90;;;;;;4997675;28;20221;-79
2023/05/17 03:58:21;;;;;;;1.30;1.20;;;17.40;51.90;;;;;;4997906;28;20258;-79
2023/05/17 04:00:50;;;;;;;1.65;1.08;;;17.40;52.00;;;;;;4998998;28;20225;-79
2023/05/17 04:03:19;;;;;;;1.58;1.33;;;17.40;52.00;;;;;;5001030;28;20197;-80
2023/05/17 04:05:46;;;;;;;2.55;1.10;;;17.40;52.00;;;;;;4984436;28;20632;-79
2023/05/17 04:08:13;;;;;;;1.58;1.10;;;17.40;51.70;;;;;;5000911;28;20612;-80
2023/05/17 04:10:41;;;;;;;0.98;0.95;;;17.40;51.80;;;;;;4983278;28;20203;-80
2023/05/17 04:13:09;;;;;;;1.30;1.20;;;17.40;51.90;;;;;;5000074;28;20207;-80
2023/05/17 04:15:37;;;;;;;1.35;1.23;;;17.40;52.50;;;;;;4999926;28;20220;-80
2023/05/17 04:18:07;;;;;;;2.03;1.30;;;17.40;51.90;;;;;;5000575;28;20211;-81
2023/05/17 04:20:34;;;;;;;1.20;1.10;;;17.40;51.80;;;;;;5000709;28;20204;-80
2023/05/17 04:23:02;;;;;;;1.33;1.00;;;17.50;51.90;;;;;;5000639;28;20319;-80
2023/05/17 04:25:32;;;;;;;1.63;1.27;;;17.50;52.00;;;;;;5001637;28;20211;-80
2023/05/17 04:28:00;;;;;;;1.20;1.10;;;17.50;51.80;;;;;;4999673;28;20196;-80
2023/05/17 04:30:27;;;;;;;2.10;1.17;;;17.50;51.90;;;;;;5000049;28;20670;-80
2023/05/17 04:32:55;;;;;;;1.52;1.23;;;17.50;52.00;;;;;;5016751;28;20208;-80
2023/05/17 04:35:23;;;;;;;1.27;1.20;;;17.50;51.80;;;;;;5000080;28;20221;-79
2023/05/17 04:37:53;;;;;;;1.55;1.20;;;17.50;51.80;;;;;;5000722;28;20196;-80
2023/05/17 04:40:22;;;;;;;2.20;1.35;;;17.60;51.70;;;;;;4999071;28;20228;-80
2023/05/17 04:42:51;;;;;;;1.45;1.10;;;17.60;51.70;;;;;;4998195;28;20241;-79
2023/05/17 04:45:19;;;;;;;1.92;1.10;;;17.60;51.70;;;;;;4980960;28;20197;-80
2023/05/17 04:47:46;;;;;;;1.23;1.05;;;17.70;51.60;;;;;;4980545;28;20721;-80
2023/05/17 04:50:15;;;;;;;1.15;1.05;;;17.70;51.20;;;;;;4996590;28;20208;-80
2023/05/17 04:52:43;;;;;;;1.48;1.10;;;17.90;51.30;;;;;;4980787;28;20553;-80
2023/05/17 04:55:11;;;;;;;0.90;0.90;;;17.90;51.00;;;;;;4980430;28;20652;-80
2023/05/17 04:57:38;;;;;;;1.38;1.00;;;18.00;50.70;;;;;;4996214;28;20207;-80
2023/05/17 05:00:08;;;;;;;1.23;1.10;;;18.20;50.50;;;;;;4996888;28;20562;-80
2023/05/17 05:02:37;;;;;;;2.47;1.15;;;18.20;50.30;;;;;;4996275;28;20236;-80
2023/05/17 05:05:06;;;;;;;1.40;1.27;;;18.30;50.30;;;;;;4996985;28;20679;-80
2023/05/17 05:07:33;;;;;;;1.80;1.10;;;18.30;50.30;;;;;;4996303;28;20196;-80
2023/05/17 05:10:02;;;;;;;1.80;1.20;;;18.40;50.40;;;;;;5014266;28;20200;-80
2023/05/17 05:12:29;;;;;;;1.35;1.25;;;18.50;50.10;;;;;;4998404;28;20287;-80
2023/05/17 05:14:57;;;;;;;1.20;1.10;;;18.70;50.10;;;;;;4996595;28;20217;-80
2023/05/17 05:17:24;;;;;;;1.23;1.10;;;18.70;49.70;;;;;;4980490;28;20565;-80
2023/05/17 05:19:52;;;;;;;2.15;1.20;;;18.70;49.20;;;;;;4996697;28;20201;-80
2023/05/17 05:22:19;;;;;;;1.75;1.00;;;18.70;49.20;;;;;;4995990;28;20304;-80
2023/05/17 05:24:46;;;;;;;2.15;1.23;;;18.80;49.30;;;;;;4996476;28;20197;-80
2023/05/17 05:27:15;;;;;;;1.35;1.02;;;18.80;49.60;;;;;;4996227;28;20596;-80
2023/05/17 05:29:42;;;;;;;1.95;1.20;;;18.80;49.60;;;;;;4996762;28;20251;-80
2023/05/17 05:32:09;;;;;;;1.63;1.10;;;18.80;49.60;;;;;;4996522;28;20217;-80
2023/05/17 05:34:42;;;;;;;1.80;1.20;;;18.90;49.20;;;;;;4995959;28;20196;-80
2023/05/17 05:37:09;;;;;;;1.02;0.93;;;19.00;49.20;;;;;;4996284;28;20255;-80
2023/05/17 05:39:37;;;;;;;1.35;1.25;;;19.00;49.40;;;;;;4996724;28;20189;-80
2023/05/17 05:42:04;;;;;;;2.58;1.20;;;19.10;49.20;;;;;;4999340;28;20228;-80
2023/05/17 05:44:33;;;;;;;1.23;1.13;;;19.20;49.00;;;;;;4999422;28;20295;-80
2023/05/17 05:47:00;;;;;;;2.28;1.70;;;19.20;48.90;;;;;;4999710;28;20193;-80
2023/05/17 05:49:27;;;;;;;1.55;1.20;;;19.40;48.80;;;;;;4999338;28;20203;-80
2023/05/17 05:51:54;;;;;;;3.63;1.65;;;19.50;48.10;;;;;;5000104;28;20239;-80
2023/05/17 05:54:22;;;;;;;2.17;1.40;;;19.60;47.90;;;;;;5000821;28;20216;-80
2023/05/17 05:56:53;;;;;;;2.95;1.30;;;19.70;47.90;;;;;;5000010;28;20215;-80
2023/05/17 05:59:20;;;;;;;1.73;1.52;;;19.80;47.70;;;;;;4999373;28;20196;-80
2023/05/17 06:01:49;;;;;;;2.33;1.42;;;19.80;47.40;;;;;;4999829;28;20228;-80
2023/05/17 06:04:16;;;;;;;1.40;1.30;;;19.80;47.40;;;;;;4983113;28;20201;-80
2023/05/17 06:06:44;;;;;;;2.25;1.20;;;19.90;47.50;;;;;;5000328;28;20192;-80
2023/05/17 06:09:11;;;;;;;2.08;1.17;;;19.90;47.40;;;;;;5000094;28;20197;-80
2023/05/17 06:11:38;;;;;;;1.65;1.05;;;20.00;47.50;;;;;;5000055;28;20217;-80
2023/05/17 06:14:05;;;;;;;1.77;1.13;;;20.10;47.60;;;;;;4998828;28;20383;-80
2023/05/17 06:16:32;;;;;;;1.58;1.15;;;20.20;47.40;;;;;;4998889;28;20629;-80
2023/05/17 06:19:01;;;;;;;1.52;1.27;;;20.30;47.30;;;;;;4998816;28;20259;-80
2023/05/17 06:21:28;;;;;;;1.40;1.10;;;20.40;47.20;;;;;;4998818;28;20590;-80
2023/05/17 06:23:55;;;;;;;2.05;1.30;;;20.50;46.90;;;;;;4998940;28;20569;-80
2023/05/17 06:26:22;;;;;;;2.05;1.25;;;20.60;46.50;;;;;;4998825;28;20232;-80
2023/05/17 06:28:49;;;;;;;3.00;1.17;;;20.70;46.30;;;;;;4982514;28;20252;-80
2023/05/17 06:31:18;;;;;;;2.75;1.67;;;20.80;46.30;;;;;;5016911;28;20259;-80
2023/05/17 06:33:45;;;;;;;1.58;1.20;;;20.90;45.70;;;;;;5000682;28;20204;-80
2023/05/17 06:36:14;;;;;;;1.73;1.20;;;21.00;45.60;;;;;;4998046;28;20220;-80
2023/05/17 06:38:41;;;;;;;2.28;1.48;;;21.10;45.60;;;;;;5015890;28;20192;-80
2023/05/17 06:41:08;;;;;;;1.50;1.10;;;21.20;45.60;;;;;;4999037;28;20220;-80
2023/05/17 06:43:35;;;;;;;2.67;1.33;;;21.30;45.40;;;;;;4998358;28;20205;-80
2023/05/17 06:46:03;;;;;;;1.67;1.30;;;21.40;45.40;;;;;;4998359;28;20197;-80
2023/05/17 06:48:30;;;;;;;1.80;1.35;;;21.50;45.20;;;;;;4998533;28;20287;-80
2023/05/17 06:50:57;;;;;;;1.75;1.30;;;21.60;45.10;;;;;;4998299;28;20204;-80
2023/05/17 06:53:26;;;;;;;2.50;1.42;;;21.70;45.00;;;;;;4998233;28;20203;-80
2023/05/17 06:55:52;;;;;;;1.40;1.30;;;21.70;44.90;;;;;;4998372;28;20248;-80
2023/05/17 06:58:20;;;;;;;1.75;1.45;;;21.80;44.80;;;;;;4998358;28;20196;-80
2023/05/17 07:00:47;;;;;;;1.75;1.60;;;21.90;44.70;;;;;;4981874;28;20225;-80
2023/05/17 07:03:15;;;;;;;1.77;1.40;;;22.00;44.60;;;;;;4998339;28;20204;-81
2023/05/17 07:05:42;;;;;;;1.50;1.23;;;22.00;44.30;;;;;;4998234;28;20215;-80
2023/05/17 07:08:09;;;;;;;2.67;1.50;;;22.10;44.30;;;;;;4998500;28;20205;-80
2023/05/17 07:10:38;;;;;;;2.38;1.30;;;22.20;44.20;;;;;;4998202;28;20258;-80
2023/05/17 07:13:05;;;;;;;1.65;1.33;;;22.30;44.10;;;;;;4997861;28;20247;-81
2023/05/17 07:15:32;;;;;;;1.27;1.17;;;22.30;44.00;;;;;;4997813;28;20219;-81
2023/05/17 07:17:59;;;;;;;1.45;1.20;;;22.30;43.90;;;;;;4998734;28;20196;-81
2023/05/17 07:20:27;;;;;;;1.95;1.20;;;22.40;43.70;;;;;;5015512;28;20188;-81
2023/05/17 07:22:55;;;;;;;2.00;1.33;;;22.50;43.60;;;;;;4997698;28;20235;-80
2023/05/17 07:25:22;;;;;;;1.17;1.08;;;22.50;43.30;;;;;;4998090;28;20222;-80
2023/05/17 07:27:50;;;;;;;1.40;1.13;;;22.60;43.30;;;;;;4965764;28;20197;-80
2023/05/17 07:30:17;;;;;;;2.08;1.10;;;22.60;43.80;;;;;;5015084;28;20239;-80
2023/05/17 07:32:44;;;;;;;2.05;1.30;;;22.70;43.20;;;;;;4998380;28;20228;-80
2023/05/17 07:35:11;;;;;;;1.85;1.27;;;22.70;43.10;;;;;;4997627;28;20208;-80
2023/05/17 07:37:39;;;;;;;1.30;1.17;;;22.70;43.10;;;;;;5015185;28;20193;-80
2023/05/17 07:40:07;;;;;;;1.70;1.38;;;22.70;43.00;;;;;;4999265;28;20232;-80
2023/05/17 07:42:34;;;;;;;1.58;1.30;;;22.70;43.20;;;;;;5000181;28;20750;-80
2023/05/17 07:45:03;;;;;;;1.20;1.10;;;22.70;43.20;;;;;;4997472;28;20251;-80
2023/05/17 07:47:31;;;;;;;1.70;1.38;;;22.60;43.20;;;;;;4997317;28;20570;-80
2023/05/17 07:49:58;;;;;;;1.73;1.10;;;22.60;43.20;;;;;;4997526;28;20212;-80
2023/05/17 07:52:25;;;;;;;1.60;1.17;;;22.60;43.30;;;;;;4981193;28;20216;-80
2023/05/17 07:54:52;;;;;;;1.42;1.15;;;22.60;43.30;;;;;;4997470;28;20216;-80
2023/05/17 07:57:20;;;;;;;1.08;1.05;;;22.60;43.30;;;;;;4997620;28;20223;-80
2023/05/17 07:59:47;;;;;;;1.30;1.20;;;22.50;43.30;;;;;;5002946;28;20259;-81
2023/05/17 08:02:16;;;;;;;1.58;1.10;;;22.50;43.20;;;;;;4999025;28;20220;-80
2023/05/17 08:04:42;;;;;;;1.40;1.10;;;22.60;43.30;;;;;;4980943;28;20207;-80
2023/05/17 08:07:10;;;;;;;1.70;1.30;;;22.60;43.30;;;;;;4997103;28;20283;-80
2023/05/17 08:09:37;;;;;;;1.17;1.08;;;22.60;43.20;;;;;;4997495;28;20197;-80
2023/05/17 08:12:04;;;;;;;1.15;1.00;;;22.70;43.10;;;;;;4997375;28;20220;-80
2023/05/17 08:14:31;;;;;;;1.23;1.10;;;22.70;42.90;;;;;;4997278;28;20532;-80
2023/05/17 08:16:59;;;;;;;2.33;1.40;;;22.80;42.70;;;;;;4997077;28;20231;-80
2023/05/17 08:19:27;;;;;;;1.35;1.23;;;23.00;42.70;;;;;;4999305;28;20203;-80
2023/05/17 08:21:55;;;;;;;1.90;1.38;;;23.10;42.60;;;;;;5014744;28;20239;-80
2023/05/17 08:24:22;;;;;;;1.30;1.20;;;23.10;42.50;;;;;;4997371;28;20258;-80
2023/05/17 08:26:48;;;;;;;1.35;1.10;;;23.10;42.30;;;;;;4997460;28;20714;-80
2023/05/17 08:29:15;;;;;;;1.35;1.20;;;23.10;42.20;;;;;;5014595;28;20189;-80
2023/05/17 08:31:44;;;;;;;1.55;1.30;;;23.20;42.20;;;;;;4997081;28;20575;-80
2023/05/17 08:34:11;;;;;;;1.48;1.33;;;23.30;42.10;;;;;;4981738;28;20562;-80
2023/05/17 08:36:40;;;;;;;1.20;1.10;;;23.40;42.00;;;;;;4980988;28;20244;-80
2023/05/17 08:39:07;;;;;;;1.48;0.93;;;23.40;41.80;;;;;;4996655;28;20208;-80
2023/05/17 08:41:34;;;;;;;1.45;1.30;;;23.50;41.70;;;;;;4996792;28;20259;-80
2023/05/17 08:44:03;;;;;;;1.67;1.27;;;23.60;41.60;;;;;;4996721;28;20200;-80
2023/05/17 08:46:30;;;;;;;1.98;1.23;;;23.70;41.40;;;;;;4996946;28;20244;-80
2023/05/17 08:48:59;;;;;;;2.13;1.30;;;23.80;41.40;;;;;;4980964;28;20682;-80
2023/05/17 08:51:26;;;;;;;2.67;1.33;;;23.80;41.30;;;;;;4996342;28;20236;-80
2023/05/17 08:53:54;;;;;;;1.45;1.20;;;23.70;41.30;;;;;;4996735;28;20231;-80
2023/05/17 08:56:21;;;;;;;2.13;1.30;;;23.70;41.40;;;;;;4997222;28;20761;-80
2023/05/17 08:58:50;;;;;;;1.30;1.20;;;23.70;41.40;;;;;;4997407;28;20196;-80
2023/05/17 09:01:17;;;;;;;1.30;1.20;;;23.70;41.40;;;;;;4996580;28;20789;-80
2023/05/17 09:03:47;;;;;;;1.85;1.38;;;23.60;41.40;;;;;;4997220;28;20248;-80
2023/05/17 09:06:14;;;;;;;1.60;1.30;;;23.50;41.70;;;;;;4997016;28;20197;-80
2023/05/17 09:08:42;;;;;;;1.63;1.50;;;23.40;41.80;;;;;;5014478;28;20193;-80
2023/05/17 09:11:10;;;;;;;1.25;1.15;;;23.20;42.00;;;;;;4997006;28;20221;-80
2023/05/17 09:13:37;;;;;;;1.27;1.17;;;23.20;42.30;;;;;;4996745;28;20570;-80
2023/05/17 09:16:05;;;;;;;1.50;1.25;;;23.20;42.30;;;;;;4983759;28;20284;-80
2023/05/17 09:18:32;;;;;;;1.52;1.20;;;23.20;42.90;;;;;;5001788;28;20197;-80
2023/05/17 09:21:02;;;;;;;1.40;1.20;;;23.20;42.20;;;;;;5001967;28;20224;-80
2023/05/17 09:23:30;;;;;;;2.08;1.40;;;23.20;42.10;;;;;;5000613;28;20647;-80
2023/05/17 09:26:03;;;;;;;1.20;1.10;;;23.20;42.20;;;;;;5000543;28;20671;-80
2023/05/17 09:28:37;;;;;;;1.67;1.20;;;23.10;42.20;;;;;;5000251;28;20193;-80
2023/05/17 09:31:06;;;;;;;1.85;1.30;;;23.10;42.40;;;;;;5001033;28;20311;-80
2023/05/17 09:33:33;;;;;;;2.20;1.48;;;23.00;43.10;;;;;;5000220;28;20200;-80
2023/05/17 09:36:01;;;;;;;2.38;1.38;;;22.90;42.70;;;;;;4983898;28;20628;-80
2023/05/17 09:38:28;;;;;;;1.40;1.30;;;22.90;42.80;;;;;;4999982;28;20208;-80
2023/05/17 09:40:55;;;;;;;1.42;1.30;;;22.70;42.90;;;;;;5000049;28;20232;-80
2023/05/17 09:43:26;;;;;;;1.50;1.40;;;22.70;43.00;;;;;;5000275;28;20300;-80
2023/05/17 09:45:58;;;;;;;1.60;1.35;;;22.70;43.20;;;;;;5000341;28;20209;-80
2023/05/17 09:48:26;;;;;;;1.60;1.42;;;22.70;43.20;;;;;;4984940;28;20651;-80
2023/05/17 09:50:53;;;;;;;1.40;1.30;;;22.70;43.40;;;;;;5001835;28;20235;-80
2023/05/17 09:53:28;;;;;;;1.38;1.23;;;22.60;43.20;;;;;;5001010;28;20197;-80
2023/05/17 09:55:55;;;;;;;1.63;1.50;;;22.60;43.30;;;;;;5018805;28;20644;-80
2023/05/17 09:58:23;;;;;;;1.38;1.27;;;22.60;43.30;;;;;;5000305;28;20695;-80
2023/05/17 10:00:51;;;;;;;1.50;1.40;;;22.60;43.40;;;;;;5000868;28;20287;-80
2023/05/17 10:03:21;;;;;;;1.55;1.45;;;22.60;43.30;;;;;;5017958;28;20196;-80
2023/05/17 10:05:50;;;;;;;1.50;1.40;;;22.50;43.40;;;;;;5001659;28;20200;-80
2023/05/17 10:08:18;;;;;;;1.35;1.25;;;22.60;43.60;;;;;;4999653;28;20243;-80
2023/05/17 10:10:45;;;;;;;1.45;1.35;;;22.50;43.50;;;;;;4999377;28;20205;-80
2023/05/17 10:13:12;;;;;;;2.45;1.40;;;22.50;43.60;;;;;;4982966;28;20192;-80
2023/05/17 10:15:39;;;;;;;1.98;1.50;;;22.50;43.60;;;;;;4999219;28;20201;-80
2023/05/17 10:18:07;;;;;;;2.22;1.50;;;22.40;44.20;;;;;;4983011;28;20732;-80
2023/05/17 10:20:36;;;;;;;1.55;1.45;;;22.40;43.60;;;;;;4998796;28;20196;-80
2023/05/17 10:23:05;;;;;;;1.30;1.20;;;22.40;43.70;;;;;;4998747;28;20695;-80
2023/05/17 10:25:32;;;;;;;1.98;1.65;;;22.40;43.70;;;;;;4998335;28;20205;-81
2023/05/17 10:27:59;;;;;;;1.73;1.30;;;22.50;43.70;;;;;;4998793;28;20203;-80
2023/05/17 10:30:28;;;;;;;1.83;1.40;;;22.50;43.70;;;;;;4998706;28;20209;-81
2023/05/17 10:32:55;;;;;;;1.52;1.42;;;22.50;43.60;;;;;;4999139;28;20267;-80
2023/05/17 10:35:22;;;;;;;1.30;1.20;;;22.50;44.20;;;;;;4999761;28;20255;-80
2023/05/17 10:37:51;;;;;;;1.83;1.60;;;22.50;44.10;;;;;;4998348;28;20220;-81
2023/05/17 10:40:18;;;;;;;1.40;1.30;;;22.50;43.60;;;;;;4998606;28;20675;-81
2023/05/17 10:42:49;;;;;;;1.90;1.20;;;22.50;43.60;;;;;;4999112;28;20220;-80
2023/05/17 10:45:16;;;;;;;1.60;1.50;;;22.50;43.70;;;;;;4999507;28;20200;-80
2023/05/17 10:47:44;;;;;;;1.75;1.60;;;22.50;43.60;;;;;;4998654;28;20283;-80
2023/05/17 10:50:13;;;;;;;1.73;1.50;;;22.50;43.70;;;;;;4998119;28;20295;-79
2023/05/17 10:52:46;;;;;;;1.92;1.50;;;22.50;43.70;;;;;;4998174;28;20312;-79
2023/05/17 10:55:17;;;;;;;2.08;1.52;;;22.50;43.60;;;;;;4998266;28;20197;-79
2023/05/17 10:57:45;;;;;;;1.65;1.50;;;22.50;43.60;;;;;;4999773;28;20690;-79
2023/05/17 11:00:19;;;;;;;2.25;1.45;;;22.50;43.50;;;;;;5001050;28;20197;-81
2023/05/17 11:02:47;;;;;;;1.77;1.55;;;22.50;43.60;;;;;;4988508;28;20219;-81
2023/05/17 11:05:23;;;;;;;1.98;1.63;;;22.50;43.70;;;;;;5004969;28;20201;-81
2023/05/17 11:07:50;;;;;;;2.65;1.50;;;22.50;43.90;;;;;;5003552;28;20188;-81
2023/05/17 11:10:18;;;;;;;1.63;1.50;;;22.50;43.90;;;;;;4987341;28;20267;-81
2023/05/17 11:12:52;;;;;;;1.92;1.63;;;22.40;43.80;;;;;;4987624;28;20224;-81
2023/05/17 11:15:23;;;;;;;2.03;1.60;;;22.40;43.90;;;;;;5004428;28;20212;-81
2023/05/17 11:17:52;;;;;;;1.40;1.30;;;22.40;43.90;;;;;;5002739;28;20216;-81
2023/05/17 11:20:33;;;;;;;1.75;1.63;;;22.40;44.10;;;;;;4997831;28;20196;-80
2023/05/17 11:23:01;;;;;;;1.70;1.60;;;22.40;44.10;;;;;;4997483;28;20231;-80
2023/05/17 11:25:30;;;;;;;1.85;1.63;;;22.30;44.10;;;;;;4998699;28;20196;-80
2023/05/17 11:27:57;;;;;;;1.83;1.65;;;22.30;44.00;;;;;;4998124;28;20200;-80
2023/05/17 11:30:27;;;;;;;2.85;1.83;;;22.30;44.10;;;;;;4997522;28;20196;-80
2023/05/17 11:32:57;;;;;;;5.22;2.40;;;22.30;42.80;;;;;;4998037;28;20299;-80
2023/05/17 11:35:27;;;;;;;3.60;2.65;;;22.30;41.10;;;;;;4982663;28;20239;-80
2023/05/17 11:38:10;;;;;;;4.13;2.80;;;22.20;40.10;;;;;;4996771;28;20271;-80
2023/05/17 11:40:39;;;;;;;6.55;3.05;;;22.10;39.80;;;;;;4997999;28;20189;-80
2023/05/17 11:43:10;;;;;;;4.13;3.20;;;22.00;38.30;;;;;;4982147;28;20687;-80
2023/05/17 11:45:45;;;;;;;6.30;3.30;;;22.00;38.30;;;;;;4997365;28;20228;-80
2023/05/17 11:48:12;;;;;;;4.28;2.90;;;21.80;37.80;;;;;;4981348;28;20582;-80
2023/05/17 11:50:39;;;;;;;5.00;3.10;;;21.80;37.10;;;;;;4981126;28;20656;-80
2023/05/17 11:53:06;;;;;;;5.35;2.80;;;21.70;38.00;;;;;;4981499;28;20216;-80
2023/05/17 11:55:34;;;;;;;5.05;3.35;;;21.60;37.90;;;;;;4998747;28;20196;-80
2023/05/17 11:58:03;;;;;;;4.97;3.38;;;21.60;38.40;;;;;;4981231;28;20221;-80
2023/05/17 12:00:30;;;;;;;4.75;3.50;;;21.50;38.50;;;;;;4980760;28;20196;-80
2023/05/17 12:02:58;;;;;;;5.30;2.80;;;21.50;37.80;;;;;;4997446;28;20220;-80
2023/05/17 12:05:25;;;;;;;5.25;3.13;;;21.40;37.80;;;;;;4997187;28;20201;-80
2023/05/17 12:07:52;;;;;;;4.95;3.30;;;21.40;37.80;;;;;;4997328;28;20197;-80
2023/05/17 12:10:20;;;;;;;3.95;3.10;;;21.30;37.70;;;;;;4997866;28;20562;-80
2023/05/17 12:12:47;;;;;;;5.43;2.92;;;21.30;37.80;;;;;;4997539;28;20223;-80
2023/05/17 12:15:19;;;;;;;4.18;2.97;;;21.30;37.80;;;;;;4997455;28;20228;-80
2023/05/17 12:17:46;;;;;;;4.00;2.65;;;21.40;37.80;;;;;;4997325;28;20243;-81
2023/05/17 12:20:14;;;;;;;6.93;3.00;;;21.40;38.60;;;;;;5000667;28;20247;-81
2023/05/17 12:22:52;;;;;;;5.22;2.85;;;21.50;38.70;;;;;;4997282;28;20290;-81
2023/05/17 12:25:21;;;;;;;3.80;3.00;;;21.60;39.10;;;;;;4997192;28;20249;-79
2023/05/17 12:27:49;;;;;;;4.85;2.83;;;21.60;39.10;;;;;;4998782;28;20203;-80
2023/05/17 12:30:17;;;;;;;4.03;3.00;;;21.60;39.20;;;;;;4998902;28;20205;-80
2023/05/17 12:32:45;;;;;;;5.80;3.22;;;21.70;40.10;;;;;;4983376;28;20683;-80
2023/05/17 12:35:12;;;;;;;4.72;2.90;;;21.70;39.90;;;;;;4998715;28;20192;-80
2023/05/17 12:37:39;;;;;;;4.18;3.00;;;21.80;39.90;;;;;;4999430;28;20299;-80
2023/05/17 12:40:08;;;;;;;5.07;2.95;;;21.80;40.20;;;;;;4998059;28;20192;-79
2023/05/17 12:42:35;;;;;;;4.78;3.08;;;21.80;40.40;;;;;;4997506;28;20224;-79
2023/05/17 12:45:02;;;;;;;3.38;2.70;;;21.90;40.60;;;;;;4997202;28;20251;-79
2023/05/17 12:47:31;;;;;;;3.63;2.63;;;22.00;40.80;;;;;;4997412;28;20267;-81
2023/05/17 12:49:59;;;;;;;3.90;2.70;;;22.00;40.80;;;;;;5000263;28;20208;-79
2023/05/17 12:52:26;;;;;;;3.15;2.55;;;22.00;40.90;;;;;;5001780;28;20221;-79